Terminal Aerodrome Forecast
Issued by NWS Houston/Galveston, TX

Home | Current Version | Previous Version | Text Only | Print | Product List | Glossary On
Versions: 1 2 3 4 5 6 7 8 9 10 11 12 13 14 15 16 17
000
FTUS44 KHGX 231122
TAFCLL
TAF
KCLL 231122Z 2312/2412 00000KT P6SM SCT005 SCT250
      TEMPO 2312/2313 4SM BR BKN005
     FM231500 16007KT P6SM SCT020
     FM231800 16012KT P6SM SCT040
     FM240300 16012KT P6SM FEW250
     FM240900 16010KT P6SM BKN010=

USA.gov is the U.S. government's official web portal to all federal, state and local government web resources and services.